ELLX Airport Information

Runway Information
Runway 06 Length 13123 ft width 197 ft
Elevation 1158 ft Threshold 0 ft Heading 60
Runway 24 Length 13123 ft Width 197 ft
Elevation 1214 ft Threshold 0 ft Heading 240
Airport Frequencies
Type APP Name APP Frequency 118.9 MHZ
Type ATIS Name ATIS Frequency 135.55 MHZ
Type TWR Name TWR Frequency 118.1 MHZ
Airport Navaids
Type NDB Name Luxembourg Frequency 369 KHZ
Type VOR-DME Name Luxembourg Frequency 112250 KHZ
Type NDB Name Luxembourg Frequency 346 KHZ
Airport Weather Information & NOTAM
ADDS - METARS form results

(2052 UTC 22 February 2018)
 
METAR text: ELLX 222020Z 06016KT CAVOK M02/M08 Q1017 R06/19//48 NOSIG
Conditions at: ELLX (LUXEMBOURG (AUT), LU) observed 2020 UTC 22 February 2018
Temperature: -2.0°C (28°F)
Dewpoint: -8.0°C (18°F) [RH = 63%]
Pressure (altimeter): 30.03 inches Hg (1017.0 mb)
Winds: from the ENE (60 degrees) at 18 MPH (16 knots; 8.3 m/s)
Visibility: 6 or more miles (10+ km)
Ceiling: ceiling and visibility are OK
Clouds: unknown
Weather: no significant weather observed at this time